Time;durP1;ratioP1;P1;durP2;ratioP2;P2;SDS_P1;SDS_P2;PMS_P1;PMS_P2;Temp;Humidity;BMP_temperature;BMP_pressure;BME280_temperature;BME280_humidity;BME280_pressure;Samples;Min_cycle;Max_cycle;Signal;HPM_P1;HPM_P2
2022/12/04 00:02:11;;;;;;;;;;;;;;;8.10;60.52;99803.91;4508635;31;33667;-86
2022/12/04 00:04:38;;;;;;;;;;;;;;;7.90;61.62;99808.41;4510180;31;33859;-86
2022/12/04 00:07:06;;;;;;;;;;;;;;;8.60;59.15;99808.97;4513507;31;34224;-87
2022/12/04 00:09:33;;;;;;;;;;;;;;;8.14;60.33;99802.31;4499469;31;35083;-86
2022/12/04 00:12:00;;;;;;;;;;;;;;;8.29;60.12;99798.50;4498954;31;34319;-85
2022/12/04 00:14:27;;;;;;;;;;;;;;;8.14;60.26;99803.19;4505604;31;34132;-87
2022/12/04 00:16:57;;;;;;;;;;;;;;;8.43;59.83;99803.28;4506406;31;35334;-86
2022/12/04 00:19:24;;;;;;;;;;;;;;;7.94;60.95;99799.94;4497567;31;34753;-85
2022/12/04 00:21:51;;;;;;;;;;;;;;;8.90;57.84;99798.66;4499374;31;33674;-86
2022/12/04 00:24:18;;;;;;;;;;;;;;;8.52;59.25;99806.12;4499391;31;34285;-88
2022/12/04 00:26:46;;;;;;;;;;;;;;;8.60;58.49;99811.53;4499086;31;34130;-86
2022/12/04 00:29:13;;;;;;;;;;;;;;;9.07;57.30;99815.56;4499200;31;34250;-85
2022/12/04 00:31:40;;;;;;;;;;;;;;;9.26;56.80;99807.50;4504224;31;33737;-85
2022/12/04 00:34:08;;;;;;;;;;;;;;;10.11;54.23;99801.94;4508201;31;34979;-86
2022/12/04 00:36:35;;;;;;;;;;;;;;;10.75;52.45;99800.03;4514597;31;35129;-85
2022/12/04 00:39:02;;;;;;;;;;;;;;;11.26;50.99;99799.38;4514665;31;35340;-85
2022/12/04 00:41:30;;;;;;;;;;;;;;;11.34;50.25;99803.00;4514773;31;34310;-87
2022/12/04 00:44:00;;;;;;;;;;;;;;;11.75;48.83;99797.72;4514671;31;33974;-85
2022/12/04 00:46:28;;;;;;;;;;;;;;;11.81;48.52;99787.44;4514723;31;34994;-85
2022/12/04 00:48:57;;;;;;;;;;;;;;;11.71;47.83;99793.31;4514694;31;34591;-85
2022/12/04 00:51:24;;;;;;;;;;;;;;;11.87;47.62;99780.66;4506547;31;33499;-85
2022/12/04 00:53:52;;;;;;;;;;;;;;;11.74;47.52;99778.66;4508115;31;35086;-88
2022/12/04 00:56:23;;;;;;;;;;;;;;;10.75;50.47;99800.91;4514473;31;34035;-89
2022/12/04 00:58:50;;;;;;;;;;;;;;;10.14;52.34;99797.72;4507248;31;34368;-89
2022/12/04 01:01:18;;;;;;;;;;;;;;;9.47;54.18;99803.72;4500846;31;33769;-86
2022/12/04 01:03:46;;;;;;;;;;;;;;;9.67;53.70;99797.41;4500241;31;34216;-89
2022/12/04 01:06:21;;;;;;;;;;;;;;;9.64;53.69;99793.84;4497460;31;35054;-87
2022/12/04 01:08:49;;;;;;;;;;;;;;;8.70;57.04;99809.28;4502124;31;34616;-90
2022/12/04 01:11:16;;;;;;;;;;;;;;;8.54;57.98;99807.06;4497147;31;34242;-88
2022/12/04 01:13:43;;;;;;;;;;;;;;;8.43;58.61;99800.69;4502111;31;34889;-86
2022/12/04 01:16:22;;;;;;;;;;;;;;;8.28;58.85;99801.94;4497145;31;34089;-86
2022/12/04 01:18:49;;;;;;;;;;;;;;;8.46;58.38;99801.66;4501072;31;34311;-88
2022/12/04 01:21:17;;;;;;;;;;;;;;;7.85;60.44;99807.41;4512306;31;33591;-86
2022/12/04 01:23:44;;;;;;;;;;;;;;;7.99;59.97;99797.50;4506564;31;33796;-84
2022/12/04 01:26:11;;;;;;;;;;;;;;;8.34;59.21;99796.09;4504523;31;35279;-88
2022/12/04 01:28:39;;;;;;;;;;;;;;;7.60;61.07;99807.38;4504979;31;34279;-85
2022/12/04 01:31:08;;;;;;;;;;;;;;;7.54;61.93;99802.91;4503825;31;33384;-84
2022/12/04 01:33:36;;;;;;;;;;;;;;;7.80;61.19;99804.66;4510890;31;33995;-89
2022/12/04 01:36:04;;;;;;;;;;;;;;;7.45;62.17;99812.88;4507144;31;34406;-86
2022/12/04 01:38:32;;;;;;;;;;;;;;;7.21;62.91;99813.75;4513158;31;34594;-86
2022/12/04 01:40:59;;;;;;;;;;;;;;;7.23;62.95;99808.63;4501726;31;33218;-88
2022/12/04 01:43:28;;;;;;;;;;;;;;;7.68;61.93;99809.38;4514465;31;34263;-84
2022/12/04 01:45:56;;;;;;;;;;;;;;;7.76;61.75;99807.94;4513786;31;33996;-89
2022/12/04 01:48:30;;;;;;;;;;;;;;;8.22;60.63;99794.00;4512833;31;34441;-86
2022/12/04 01:51:24;;;;;;;;;;;;;;;7.53;62.63;99803.69;4510039;31;33955;-85
2022/12/04 01:53:55;;;;;;;;;;;;;;;8.04;61.10;99798.56;4499648;31;33503;-86
2022/12/04 01:56:23;;;;;;;;;;;;;;;7.35;62.44;99803.94;4500348;31;34316;-86
2022/12/04 01:58:52;;;;;;;;;;;;;;;7.56;62.67;99788.31;4501710;31;34303;-87
2022/12/04 02:01:19;;;;;;;;;;;;;;;7.40;62.55;99799.81;4498677;31;34432;-89
2022/12/04 02:03:46;;;;;;;;;;;;;;;7.08;63.75;99785.75;4507053;31;34408;-86
2022/12/04 02:06:13;;;;;;;;;;;;;;;7.12;63.31;99784.16;4514188;31;34484;-84
2022/12/04 02:08:41;;;;;;;;;;;;;;;6.31;65.59;99787.13;4512971;31;35030;-88
2022/12/04 02:11:08;;;;;;;;;;;;;;;7.69;60.93;99787.03;4503000;31;33595;-86
2022/12/04 02:13:41;;;;;;;;;;;;;;;7.54;61.30;99782.25;4507954;31;34717;-86
2022/12/04 02:16:19;;;;;;;;;;;;;;;7.14;62.99;99785.09;4504573;31;34470;-85
2022/12/04 02:19:01;;;;;;;;;;;;;;;7.51;61.36;99777.84;4509905;31;35080;-86
2022/12/04 02:21:29;;;;;;;;;;;;;;;7.65;60.21;99780.00;4508450;31;32956;-86
2022/12/04 02:23:59;;;;;;;;;;;;;;;8.45;57.91;99771.50;4512129;31;34857;-86
2022/12/04 02:26:29;;;;;;;;;;;;;;;8.37;57.78;99779.78;4509660;31;35132;-86
2022/12/04 02:28:59;;;;;;;;;;;;;;;8.00;58.35;99778.63;4511457;31;34442;-89
2022/12/04 02:31:29;;;;;;;;;;;;;;;8.38;57.19;99781.59;4499944;31;34476;-84
2022/12/04 02:33:58;;;;;;;;;;;;;;;8.62;56.47;99776.28;4499828;31;34950;-88
2022/12/04 02:36:27;;;;;;;;;;;;;;;8.58;56.78;99775.31;4498384;31;34065;-88
2022/12/04 02:38:56;;;;;;;;;;;;;;;7.99;58.34;99774.28;4511184;31;35050;-85
2022/12/04 02:41:33;;;;;;;;;;;;;;;7.36;60.13;99786.75;4501436;31;33667;-85
2022/12/04 02:44:07;;;;;;;;;;;;;;;7.10;61.07;99785.81;4502154;31;34256;-89
2022/12/04 02:46:36;;;;;;;;;;;;;;;7.46;59.76;99783.66;4514097;31;34126;-87
2022/12/04 02:49:04;;;;;;;;;;;;;;;7.55;59.56;99781.41;4510350;31;34207;-85
2022/12/04 02:51:32;;;;;;;;;;;;;;;6.95;62.02;99781.84;4498688;31;33709;-89
2022/12/04 02:54:22;;;;;;;;;;;;;;;6.40;63.79;99786.59;4498399;31;33981;-88
2022/12/04 02:56:50;;;;;;;;;;;;;;;6.64;63.25;99781.53;4493471;31;35222;-86
2022/12/04 02:59:19;;;;;;;;;;;;;;;7.56;60.43;99771.13;4503793;31;34202;-85
2022/12/04 03:01:47;;;;;;;;;;;;;;;7.70;60.00;99763.00;4513935;31;32746;-89
2022/12/04 03:04:16;;;;;;;;;;;;;;;6.76;62.95;99774.25;4514104;31;33630;-89
2022/12/04 03:06:51;;;;;;;;;;;;;;;7.19;61.77;99771.53;4498196;31;34007;-87
2022/12/04 03:09:20;;;;;;;;;;;;;;;6.81;62.60;99771.03;4501396;31;35174;-90
2022/12/04 03:11:53;;;;;;;;;;;;;;;7.24;60.95;99777.75;4499763;31;34027;-85
2022/12/04 03:14:23;;;;;;;;;;;;;;;6.39;63.76;99772.84;4506358;31;34252;-89
2022/12/04 03:16:52;;;;;;;;;;;;;;;7.45;60.36;99777.63;4498763;31;34511;-86
2022/12/04 03:19:23;;;;;;;;;;;;;;;7.66;59.74;99777.50;4512990;31;34283;-89
2022/12/04 03:21:53;;;;;;;;;;;;;;;7.15;60.90;99782.56;4515324;31;34263;-85
2022/12/04 03:24:24;;;;;;;;;;;;;;;7.02;61.65;99788.13;4514678;31;34953;-87
2022/12/04 03:26:57;;;;;;;;;;;;;;;7.17;60.69;99774.91;4512490;31;35211;-89
2022/12/04 03:29:24;;;;;;;;;;;;;;;6.92;61.56;99779.16;4507716;31;34460;-88
2022/12/04 03:32:00;;;;;;;;;;;;;;;6.78;62.18;99776.09;4499405;31;33486;-90
2022/12/04 03:34:35;;;;;;;;;;;;;;;6.14;64.46;99777.84;4499471;31;34305;-84
2022/12/04 03:37:07;;;;;;;;;;;;;;;6.27;63.25;99770.66;4501333;31;35271;-85
2022/12/04 03:39:37;;;;;;;;;;;;;;;7.07;61.79;99778.84;4507241;31;33992;-87
2022/12/04 03:42:09;;;;;;;;;;;;;;;6.69;61.77;99775.72;4515028;31;33703;-88
2022/12/04 03:44:55;;;;;;;;;;;;;;;7.30;60.02;99775.38;4507524;31;33630;-86
2022/12/04 03:47:29;;;;;;;;;;;;;;;7.75;58.61;99775.22;4506092;31;34347;-86
2022/12/04 03:49:57;;;;;;;;;;;;;;;7.11;60.64;99785.00;4504706;31;34541;-86
2022/12/04 03:52:51;;;;;;;;;;;;;;;6.87;61.32;99780.69;4498064;31;33467;-84
2022/12/04 03:55:23;;;;;;;;;;;;;;;6.17;63.98;99786.56;4496370;31;34568;-86
2022/12/04 03:57:51;;;;;;;;;;;;;;;6.33;63.58;99783.81;4499267;31;34832;-87
2022/12/04 04:00:20;;;;;;;;;;;;;;;5.72;65.61;99794.16;4504646;31;34891;-89
2022/12/04 04:02:49;;;;;;;;;;;;;;;5.95;64.72;99783.97;4501898;31;34183;-84
2022/12/04 04:05:16;;;;;;;;;;;;;;;6.33;63.56;99776.06;4508894;31;33938;-86
2022/12/04 04:07:45;;;;;;;;;;;;;;;6.38;63.12;99776.25;4497836;31;35355;-86
2022/12/04 04:10:14;;;;;;;;;;;;;;;6.53;63.00;99771.69;4506420;31;34163;-86
2022/12/04 04:12:43;;;;;;;;;;;;;;;5.88;64.96;99775.06;4508754;31;33955;-86
2022/12/04 04:26:22;;;;;;;;;;;;;;;6.18;63.16;99778.03;4513600;31;33837;-88
2022/12/04 04:28:49;;;;;;;;;;;;;;;6.87;60.76;99783.28;4510601;31;34112;-85
2022/12/04 04:31:23;;;;;;;;;;;;;;;6.98;60.59;99789.72;4498781;31;35294;-85
2022/12/04 04:33:53;;;;;;;;;;;;;;;6.83;60.80;99784.84;4505932;31;33435;-86
2022/12/04 04:36:20;;;;;;;;;;;;;;;6.63;60.68;99793.53;4508113;31;34225;-89
2022/12/04 04:39:07;;;;;;;;;;;;;;;6.51;61.35;99801.66;4507567;31;34502;-88
2022/12/04 04:41:54;;;;;;;;;;;;;;;6.43;61.82;99795.31;4504256;31;34384;-87
2022/12/04 04:44:24;;;;;;;;;;;;;;;6.14;62.86;99794.19;4509308;31;34118;-85
2022/12/04 04:46:53;;;;;;;;;;;;;;;6.32;62.34;99789.75;4500087;31;33881;-88
2022/12/04 04:49:21;;;;;;;;;;;;;;;6.14;62.29;99778.75;4509079;31;34310;-90
2022/12/04 04:51:48;;;;;;;;;;;;;;;6.31;62.33;99787.13;4497491;31;34418;-85
2022/12/04 04:54:16;;;;;;;;;;;;;;;6.31;62.08;99781.97;4508566;31;33286;-86
2022/12/04 04:56:43;;;;;;;;;;;;;;;6.72;60.28;99775.84;4513550;31;34927;-86
2022/12/04 04:59:10;;;;;;;;;;;;;;;5.74;63.56;99776.19;4500664;31;34361;-86
2022/12/04 05:01:38;;;;;;;;;;;;;;;6.41;61.64;99789.25;4498564;31;34140;-86
2022/12/04 05:04:06;;;;;;;;;;;;;;;5.69;63.58;99788.88;4499054;31;33611;-86
2022/12/04 05:06:33;;;;;;;;;;;;;;;6.73;60.30;99793.06;4497187;31;34169;-86
2022/12/04 05:09:00;;;;;;;;;;;;;;;7.19;58.33;99793.88;4499639;31;34257;-85
2022/12/04 05:11:30;;;;;;;;;;;;;;;7.06;58.23;99790.00;4499462;31;35070;-87
2022/12/04 05:14:01;;;;;;;;;;;;;;;7.40;57.66;99786.03;4500172;31;33619;-85
2022/12/04 05:16:28;;;;;;;;;;;;;;;7.70;56.71;99781.06;4514146;31;34164;-86
2022/12/04 05:21:41;;;;;;;;;;;;;;;7.70;56.25;99781.94;4498786;31;34652;-90
2022/12/04 05:24:08;;;;;;;;;;;;;;;7.96;55.28;99772.50;4507220;31;34467;-87
2022/12/04 05:26:35;;;;;;;;;;;;;;;7.21;57.26;99772.50;4511033;31;34201;-85
2022/12/04 05:29:03;;;;;;;;;;;;;;;8.16;54.96;99773.13;4503078;31;34401;-87
2022/12/04 05:31:30;;;;;;;;;;;;;;;7.02;57.67;99770.06;4513908;31;34488;-86
2022/12/04 05:33:57;;;;;;;;;;;;;;;7.07;58.30;99774.56;4513880;31;34483;-88
2022/12/04 05:36:25;;;;;;;;;;;;;;;7.89;55.63;99773.13;4514204;31;33926;-87
2022/12/04 05:38:52;;;;;;;;;;;;;;;7.49;56.89;99773.44;4513819;31;33916;-87
2022/12/04 05:41:19;;;;;;;;;;;;;;;7.76;55.55;99774.38;4498201;31;33956;-85
2022/12/04 05:43:46;;;;;;;;;;;;;;;7.38;57.07;99777.34;4498899;31;33272;-88
2022/12/04 05:46:13;;;;;;;;;;;;;;;8.50;53.74;99766.47;4504015;31;33679;-88
2022/12/04 05:48:41;;;;;;;;;;;;;;;7.82;55.02;99772.84;4512758;31;34031;-86
2022/12/04 05:51:08;;;;;;;;;;;;;;;7.48;56.27;99772.56;4499319;31;34485;-90
2022/12/04 05:53:35;;;;;;;;;;;;;;;7.17;57.53;99780.94;4498372;31;34542;-86
2022/12/04 05:56:03;;;;;;;;;;;;;;;6.74;58.46;99783.62;4497900;31;34239;-87
2022/12/04 05:58:33;;;;;;;;;;;;;;;7.18;57.48;99777.53;4501750;31;33787;-86
2022/12/04 06:01:00;;;;;;;;;;;;;;;7.74;56.04;99772.59;4499959;31;34243;-86
2022/12/04 06:03:27;;;;;;;;;;;;;;;7.95;55.16;99775.88;4496453;31;33348;-86
2022/12/04 06:05:54;;;;;;;;;;;;;;;8.57;53.38;99778.75;4497888;31;35022;-86
2022/12/04 06:08:21;;;;;;;;;;;;;;;8.11;54.37;99781.56;4500851;31;35403;-88
2022/12/04 06:10:49;;;;;;;;;;;;;;;7.74;55.01;99776.06;4511983;31;34515;-88
2022/12/04 06:13:16;;;;;;;;;;;;;;;8.35;53.53;99776.28;4503063;31;33382;-88
2022/12/04 06:15:43;;;;;;;;;;;;;;;8.43;53.54;99780.03;4497940;31;34894;-89
2022/12/04 06:18:11;;;;;;;;;;;;;;;7.93;54.92;99787.87;4498751;31;34468;-87
2022/12/04 06:20:38;;;;;;;;;;;;;;;8.39;53.50;99789.38;4507716;31;34582;-89
2022/12/04 06:23:05;;;;;;;;;;;;;;;7.99;54.26;99787.19;4500030;31;33629;-86
2022/12/04 06:25:33;;;;;;;;;;;;;;;8.57;52.76;99790.78;4501065;31;34992;-90
2022/12/04 06:28:00;;;;;;;;;;;;;;;8.08;53.89;99790.09;4507130;31;34401;-89
2022/12/04 06:30:27;;;;;;;;;;;;;;;7.35;56.55;99805.63;4509108;31;34643;-86
2022/12/04 06:32:54;;;;;;;;;;;;;;;7.19;57.11;99805.06;4507279;31;34329;-89
2022/12/04 06:35:21;;;;;;;;;;;;;;;7.57;56.24;99797.81;4501640;31;34958;-86
2022/12/04 06:37:48;;;;;;;;;;;;;;;8.27;54.02;99797.59;4499928;31;35097;-85
2022/12/04 06:40:16;;;;;;;;;;;;;;;7.51;56.20;99792.47;4500558;31;35296;-90
2022/12/04 06:42:43;;;;;;;;;;;;;;;8.07;54.41;99787.44;4499656;31;34321;-93
2022/12/04 06:45:10;;;;;;;;;;;;;;;7.85;55.11;99784.16;4499874;31;34118;-87
2022/12/04 06:47:37;;;;;;;;;;;;;;;7.15;57.49;99789.44;4499439;31;35838;-86
2022/12/04 06:50:05;;;;;;;;;;;;;;;7.19;57.74;99781.84;4508402;31;35230;-91
2022/12/04 06:52:32;;;;;;;;;;;;;;;7.07;58.14;99789.16;4506946;31;35011;-85
2022/12/04 06:55:00;;;;;;;;;;;;;;;6.61;59.24;99795.16;4500343;31;35059;-83
2022/12/04 06:57:27;;;;;;;;;;;;;;;6.33;60.80;99793.22;4502800;31;34288;-89
2022/12/04 06:59:54;;;;;;;;;;;;;;;7.21;57.95;99787.09;4508538;31;34467;-86
2022/12/04 07:02:22;;;;;;;;;;;;;;;7.41;57.28;99774.91;4508501;31;33614;-86
2022/12/04 07:04:52;;;;;;;;;;;;;;;6.60;59.59;99780.53;4509080;31;34934;-86
2022/12/04 07:07:19;;;;;;;;;;;;;;;6.62;59.50;99778.88;4512544;31;34208;-86
2022/12/04 07:09:47;;;;;;;;;;;;;;;7.40;57.88;99775.72;4503984;31;34706;-85
2022/12/04 07:12:14;;;;;;;;;;;;;;;7.05;58.18;99788.25;4499527;31;33557;-87
2022/12/04 07:14:41;;;;;;;;;;;;;;;8.18;55.46;99779.22;4500571;31;34301;-85
2022/12/04 07:17:08;;;;;;;;;;;;;;;7.31;57.35;99787.47;4511778;31;35353;-84
2022/12/04 07:19:36;;;;;;;;;;;;;;;7.03;58.39;99787.28;4511351;31;34578;-87
2022/12/04 07:22:03;;;;;;;;;;;;;;;6.47;60.19;99794.63;4508786;31;33800;-86
2022/12/04 07:24:30;;;;;;;;;;;;;;;6.55;59.78;99790.66;4500431;31;33721;-84
2022/12/04 07:26:57;;;;;;;;;;;;;;;6.87;60.09;99793.59;4504908;31;34439;-84
2022/12/04 07:29:24;;;;;;;;;;;;;;;7.88;57.05;99776.53;4500086;31;34457;-90
2022/12/04 07:31:52;;;;;;;;;;;;;;;7.10;59.06;99783.25;4509121;31;33249;-86
2022/12/04 07:34:19;;;;;;;;;;;;;;;7.12;59.18;99786.75;4500406;31;33627;-85
2022/12/04 07:36:46;;;;;;;;;;;;;;;6.76;60.02;99784.56;4499621;31;34090;-85
2022/12/04 07:39:14;;;;;;;;;;;;;;;7.15;59.08;99797.16;4503812;31;34320;-85
2022/12/04 07:41:41;;;;;;;;;;;;;;;7.76;57.41;99789.88;4500152;31;33424;-89
2022/12/04 07:44:08;;;;;;;;;;;;;;;7.28;58.84;99789.94;4506329;31;33821;-85
2022/12/04 07:46:35;;;;;;;;;;;;;;;7.18;58.94;99793.00;4512721;31;34874;-89
2022/12/04 07:49:02;;;;;;;;;;;;;;;7.18;59.46;99797.28;4499980;31;34064;-90
2022/12/04 07:51:29;;;;;;;;;;;;;;;7.11;59.71;99803.03;4501025;31;33219;-85
2022/12/04 07:53:57;;;;;;;;;;;;;;;7.43;59.09;99799.94;4500540;31;34678;-86
2022/12/04 07:56:29;;;;;;;;;;;;;;;7.96;57.54;99800.03;4512889;31;33651;-86
2022/12/04 07:58:58;;;;;;;;;;;;;;;7.36;59.75;99808.28;4509598;31;34075;-90
2022/12/04 08:01:25;;;;;;;;;;;;;;;7.64;59.17;99794.63;4499989;31;34274;-90
2022/12/04 08:03:54;;;;;;;;;;;;;;;7.17;60.48;99796.41;4499249;31;34966;-86
2022/12/04 08:06:22;;;;;;;;;;;;;;;8.61;56.31;99785.75;4508651;31;35059;-90
2022/12/04 08:08:49;;;;;;;;;;;;;;;8.18;57.54;99784.41;4505071;31;34196;-86
2022/12/04 08:11:18;;;;;;;;;;;;;;;8.49;56.18;99790.56;4504954;31;34457;-86
2022/12/04 08:13:45;;;;;;;;;;;;;;;8.02;57.55;99792.44;4485991;31;34185;-86
2022/12/04 08:16:12;;;;;;;;;;;;;;;8.75;55.92;99786.16;4503582;31;34015;-89
2022/12/04 08:18:40;;;;;;;;;;;;;;;8.17;57.27;99782.63;4499795;31;34184;-88
2022/12/04 08:21:12;;;;;;;;;;;;;;;7.97;57.83;99788.84;4489832;31;33629;-85
2022/12/04 08:23:40;;;;;;;;;;;;;;;7.06;60.74;99793.44;4500579;31;33824;-85
2022/12/04 08:26:08;;;;;;;;;;;;;;;8.12;57.98;99776.44;4515001;31;34350;-85
2022/12/04 08:28:35;;;;;;;;;;;;;;;8.53;56.87;99782.06;4486094;31;34463;-90
2022/12/04 08:31:06;;;;;;;;;;;;;;;8.34;57.52;99790.06;4484808;31;33018;-85
2022/12/04 08:33:34;;;;;;;;;;;;;;;8.49;56.88;99787.97;4512898;31;34183;-84
2022/12/04 08:36:01;;;;;;;;;;;;;;;8.27;57.73;99788.97;4514796;31;35318;-88
2022/12/04 08:38:28;;;;;;;;;;;;;;;9.17;55.51;99789.13;4487952;31;34387;-86
2022/12/04 08:41:00;;;;;;;;;;;;;;;8.59;56.70;99779.66;4499081;31;34456;-91
2022/12/04 08:43:27;;;;;;;;;;;;;;;9.07;55.71;99774.19;4494322;31;34899;-84
2022/12/04 08:45:55;;;;;;;;;;;;;;;9.38;54.79;99787.97;4501124;31;35707;-87
2022/12/04 08:48:22;;;;;;;;;;;;;;;8.27;57.56;99789.84;4507858;31;34136;-85
2022/12/04 08:50:49;;;;;;;;;;;;;;;9.13;55.53;99789.88;4499379;31;34206;-86
2022/12/04 08:53:17;;;;;;;;;;;;;;;8.19;58.21;99793.91;4500306;31;34890;-90
2022/12/04 08:55:44;;;;;;;;;;;;;;;7.86;58.97;99795.37;4499012;31;34508;-89
2022/12/04 08:58:11;;;;;;;;;;;;;;;7.60;60.33;99797.06;4507659;31;34235;-84
2022/12/04 09:00:39;;;;;;;;;;;;;;;7.38;61.00;99793.72;4503047;31;33433;-88
2022/12/04 09:03:07;;;;;;;;;;;;;;;7.47;60.90;99793.19;4488823;31;33607;-85
2022/12/04 09:05:34;;;;;;;;;;;;;;;7.35;61.49;99796.22;4500181;31;35218;-85
2022/12/04 09:08:02;;;;;;;;;;;;;;;7.90;60.20;99792.06;4502035;31;33791;-87
2022/12/04 09:10:30;;;;;;;;;;;;;;;8.24;58.95;99784.56;4511850;31;33652;-85
2022/12/04 09:12:58;;;;;;;;;;;;;;;8.25;58.85;99783.75;4513123;31;34339;-85
2022/12/04 09:15:26;;;;;;;;;;;;;;;7.82;60.02;99783.19;4507760;31;34420;-85
2022/12/04 09:17:54;;;;;;;;;;;;;;;8.48;58.59;99778.44;4510807;31;34442;-85
2022/12/04 09:20:21;;;;;;;;;;;;;;;7.90;59.71;99777.44;4512156;31;32760;-88
2022/12/04 09:22:49;;;;;;;;;;;;;;;7.41;60.89;99777.47;4512815;31;34752;-84
2022/12/04 09:25:31;;;;;;;;;;;;;;;8.27;59.58;99771.75;4512680;31;34293;-85
2022/12/04 09:27:59;;;;;;;;;;;;;;;7.89;60.33;99775.69;4499978;31;34059;-86
2022/12/04 09:30:26;;;;;;;;;;;;;;;7.78;60.81;99777.91;4504963;31;34274;-83
2022/12/04 09:32:55;;;;;;;;;;;;;;;7.17;62.46;99795.53;4498186;31;34140;-86
2022/12/04 09:35:23;;;;;;;;;;;;;;;8.27;60.22;99770.88;4502088;31;34432;-88
2022/12/04 09:37:50;;;;;;;;;;;;;;;7.88;60.38;99773.94;4514414;31;34590;-89
2022/12/04 09:40:28;;;;;;;;;;;;;;;8.42;59.23;99767.94;4513720;31;33425;-86
2022/12/04 09:43:15;;;;;;;;;;;;;;;8.61;58.22;99754.75;4487684;31;33939;-85
2022/12/04 09:45:45;;;;;;;;;;;;;;;7.74;59.78;99752.81;4486118;31;35251;-86
2022/12/04 09:48:12;;;;;;;;;;;;;;;8.10;59.20;99747.09;4496903;31;34414;-87
2022/12/04 09:50:42;;;;;;;;;;;;;;;8.82;57.72;99740.69;4483615;31;33159;-89
2022/12/04 09:53:12;;;;;;;;;;;;;;;9.38;56.40;99731.91;4510055;31;34002;-90
2022/12/04 09:55:45;;;;;;;;;;;;;;;9.39;55.36;99731.06;4500830;31;34524;-85
2022/12/04 09:58:13;;;;;;;;;;;;;;;9.60;55.68;99730.75;4486164;31;35088;-85
2022/12/04 10:00:43;;;;;;;;;;;;;;;9.14;56.98;99719.22;4486567;31;34259;-89
2022/12/04 10:03:14;;;;;;;;;;;;;;;9.28;56.29;99732.53;4484791;31;35085;-86
2022/12/04 10:05:53;;;;;;;;;;;;;;;9.06;56.96;99715.53;4485617;31;35219;-86
2022/12/04 10:08:53;;;;;;;;;;;;;;;8.91;57.15;99728.91;4500131;31;34236;-88
2022/12/04 10:11:20;;;;;;;;;;;;;;;9.11;56.32;99731.19;4465921;31;32336;-90
2022/12/04 10:13:57;;;;;;;;;;;;;;;9.16;56.03;99725.28;4499674;31;33915;-85
2022/12/04 10:16:43;;;;;;;;;;;;;;;8.80;56.26;99714.81;4500128;31;35370;-89
2022/12/04 10:19:34;;;;;;;;;;;;;;;8.85;55.19;99709.75;4499695;31;34509;-86
2022/12/04 10:22:17;;;;;;;;;;;;;;;9.40;53.67;99713.84;4491893;31;34296;-84
2022/12/04 10:24:48;;;;;;;;;;;;;;;9.95;52.90;99704.84;4500035;31;34282;-87
2022/12/04 10:27:23;;;;;;;;;;;;;;;9.78;52.05;99707.06;4500008;31;34810;-86
2022/12/04 10:29:55;;;;;;;;;;;;;;;9.60;52.84;99697.13;4498818;31;34820;-84
2022/12/04 10:32:27;;;;;;;;;;;;;;;9.36;53.15;99696.50;4498926;31;33725;-86
2022/12/04 10:34:56;;;;;;;;;;;;;;;9.49;53.14;99695.97;4498460;31;33913;-86
2022/12/04 10:37:23;;;;;;;;;;;;;;;9.90;52.44;99701.28;4499962;31;34469;-84
2022/12/04 10:39:55;;;;;;;;;;;;;;;9.71;52.96;99693.06;4515907;31;34571;-86
2022/12/04 10:42:35;;;;;;;;;;;;;;;9.34;53.60;99693.84;4514417;31;33200;-88
2022/12/04 10:45:04;;;;;;;;;;;;;;;9.22;53.69;99678.03;4515814;31;33958;-90
2022/12/04 10:47:31;;;;;;;;;;;;;;;9.80;52.43;99684.66;4515508;31;34551;-86
2022/12/04 10:49:59;;;;;;;;;;;;;;;9.05;53.75;99677.56;4515602;31;35237;-86
2022/12/04 10:52:26;;;;;;;;;;;;;;;9.39;53.27;99675.84;4516012;31;33247;-88
2022/12/04 10:54:55;;;;;;;;;;;;;;;9.97;51.91;99666.94;4514219;31;34188;-88
2022/12/04 10:57:33;;;;;;;;;;;;;;;10.03;51.17;99661.88;4514267;31;35138;-86
2022/12/04 11:00:00;;;;;;;;;;;;;;;9.72;52.17;99655.97;4515887;31;34097;-86
2022/12/04 11:02:28;;;;;;;;;;;;;;;9.67;52.89;99651.53;4514270;31;34092;-86
2022/12/04 11:04:59;;;;;;;;;;;;;;;9.19;54.17;99645.19;4514328;31;34074;-87
2022/12/04 11:07:27;;;;;;;;;;;;;;;10.14;52.17;99654.34;4514882;31;35213;-88
2022/12/04 11:09:56;;;;;;;;;;;;;;;10.11;51.85;99644.78;4498249;31;33643;-88
2022/12/04 11:12:24;;;;;;;;;;;;;;;9.73;53.29;99639.59;4498216;31;34329;-88
2022/12/04 11:14:58;;;;;;;;;;;;;;;9.93;52.65;99628.84;4500993;31;34754;-89
2022/12/04 11:17:25;;;;;;;;;;;;;;;9.57;53.79;99624.56;4515636;31;34002;-89
2022/12/04 11:20:00;;;;;;;;;;;;;;;9.64;53.68;99616.09;4515519;31;34347;-88
2022/12/04 11:22:27;;;;;;;;;;;;;;;9.19;54.96;99621.88;4515373;31;33780;-89
2022/12/04 11:24:55;;;;;;;;;;;;;;;9.66;54.29;99635.16;4515578;31;33849;-86
2022/12/04 11:27:33;;;;;;;;;;;;;;;9.70;53.95;99631.78;4514275;31;33900;-88
2022/12/04 11:30:01;;;;;;;;;;;;;;;9.93;53.43;99623.69;4514327;31;35079;-87
2022/12/04 11:32:29;;;;;;;;;;;;;;;9.26;55.16;99628.09;4514297;31;33501;-87
2022/12/04 11:34:57;;;;;;;;;;;;;;;9.83;54.16;99621.72;4513851;31;34172;-89
2022/12/04 11:37:26;;;;;;;;;;;;;;;10.91;51.40;99611.03;4515147;31;34402;-84
2022/12/04 11:39:54;;;;;;;;;;;;;;;10.18;52.32;99622.47;4498360;31;33431;-88
2022/12/04 11:42:26;;;;;;;;;;;;;;;9.79;53.61;99619.87;4497983;31;34453;-86
2022/12/04 11:44:58;;;;;;;;;;;;;;;10.34;52.80;99605.56;4499741;31;33908;-85
2022/12/04 11:47:27;;;;;;;;;;;;;;;10.08;53.05;99607.59;4497820;31;34221;-87
2022/12/04 11:50:00;;;;;;;;;;;;;;;10.02;53.47;99604.87;4499442;31;34240;-88
2022/12/04 11:52:45;;;;;;;;;;;;;;;10.76;51.47;99599.47;4504792;31;33952;-90
2022/12/04 11:55:18;;;;;;;;;;;;;;;10.57;52.22;99593.97;4515325;31;34078;-85
2022/12/04 11:58:03;;;;;;;;;;;;;;;10.51;51.92;99592.97;4514280;31;34906;-88
2022/12/04 12:00:31;;;;;;;;;;;;;;;10.27;52.61;99598.53;4513868;31;34407;-85
2022/12/04 12:02:59;;;;;;;;;;;;;;;10.80;51.33;99590.94;4515299;31;33555;-88
2022/12/04 12:05:29;;;;;;;;;;;;;;;11.21;50.17;99594.25;4515153;31;33808;-86
2022/12/04 12:07:56;;;;;;;;;;;;;;;10.19;52.86;99596.63;4511760;31;33736;-86
2022/12/04 12:10:31;;;;;;;;;;;;;;;10.05;53.30;99605.81;4499414;31;33977;-90
2022/12/04 12:12:58;;;;;;;;;;;;;;;11.18;50.70;99599.41;4499109;31;34135;-84
2022/12/04 12:15:31;;;;;;;;;;;;;;;11.04;50.80;99601.75;4498648;31;34136;-89
2022/12/04 12:18:10;;;;;;;;;;;;;;;10.93;51.16;99596.37;4497717;31;34348;-90
2022/12/04 12:20:44;;;;;;;;;;;;;;;10.57;52.00;99606.03;4499223;31;34072;-87
2022/12/04 12:23:22;;;;;;;;;;;;;;;10.73;51.81;99620.19;4498162;31;33534;-88
2022/12/04 12:25:54;;;;;;;;;;;;;;;11.88;49.25;99610.94;4499241;31;35081;-90
2022/12/04 12:28:26;;;;;;;;;;;;;;;12.55;47.51;99600.53;4497845;31;35193;-86
2022/12/04 12:30:53;;;;;;;;;;;;;;;11.40;49.70;99605.81;4497790;31;34076;-87
2022/12/04 12:33:25;;;;;;;;;;;;;;;11.90;48.84;99610.97;4499640;31;33684;-90
2022/12/04 12:35:53;;;;;;;;;;;;;;;10.35;52.10;99618.56;4497733;31;35170;-83
2022/12/04 12:38:24;;;;;;;;;;;;;;;10.58;52.32;99613.00;4499149;31;35281;-85
2022/12/04 12:40:56;;;;;;;;;;;;;;;10.42;52.65;99597.13;4499138;31;34467;-84
2022/12/04 12:43:29;;;;;;;;;;;;;;;10.14;53.46;99606.00;4499097;31;33636;-84
2022/12/04 12:46:05;;;;;;;;;;;;;;;9.99;54.05;99606.53;4497856;31;35098;-84
2022/12/04 12:48:39;;;;;;;;;;;;;;;10.59;52.95;99597.44;4497536;31;34777;-83
2022/12/04 12:51:20;;;;;;;;;;;;;;;9.88;54.72;99607.13;4498076;31;34498;-85
2022/12/04 12:54:02;;;;;;;;;;;;;;;10.58;53.36;99598.31;4497577;31;33535;-84
2022/12/04 12:56:32;;;;;;;;;;;;;;;10.39;53.79;99610.03;4497755;31;35161;-86
2022/12/04 12:59:00;;;;;;;;;;;;;;;10.46;53.90;99606.72;4497430;31;34119;-85
2022/12/04 13:01:31;;;;;;;;;;;;;;;10.20;54.23;99608.72;4497683;31;34556;-87
2022/12/04 13:04:01;;;;;;;;;;;;;;;10.90;52.67;99598.03;4498898;31;33359;-88
2022/12/04 13:06:30;;;;;;;;;;;;;;;11.46;50.79;99590.34;4498920;31;34144;-90
2022/12/04 13:09:05;;;;;;;;;;;;;;;11.38;51.35;99591.94;4497340;31;34424;-90
2022/12/04 13:11:33;;;;;;;;;;;;;;;11.25;51.68;99592.56;4497343;31;35175;-89
2022/12/04 13:14:02;;;;;;;;;;;;;;;11.37;51.69;99593.66;4498528;31;34072;-89
2022/12/04 13:16:34;;;;;;;;;;;;;;;11.94;49.82;99589.37;4498687;31;34349;-86
2022/12/04 13:19:17;;;;;;;;;;;;;;;11.81;50.61;99597.78;4497137;31;35116;-85
2022/12/04 13:22:02;;;;;;;;;;;;;;;11.17;51.16;99603.72;4498564;31;34624;-87
2022/12/04 13:24:39;;;;;;;;;;;;;;;10.69;52.62;99609.75;4498502;31;33758;-88